Time;durP1;ratioP1;P1;durP2;ratioP2;P2;SDS_P1;SDS_P2;PMS_P1;PMS_P2;Temp;Humidity;BMP_temperature;BMP_pressure;BME280_temperature;BME280_humidity;BME280_pressure;Samples;Min_cycle;Max_cycle;Signal;HPM_P1;HPM_P2
2021/05/05 00:01:54;;;;;;;4.18;1.00;;;;;;;;;;5017068;28;20038;-83
2021/05/05 00:04:21;;;;;;;4.57;1.15;;;;;;;;;;5033342;28;20484;-83
2021/05/05 00:06:47;;;;;;;3.53;0.93;;;;;;;;;;5016914;28;20029;-83
2021/05/05 00:09:13;;;;;;;3.10;0.85;;;;;;;;;;5034470;28;20124;-83
2021/05/05 00:11:40;;;;;;;4.60;1.13;;;;;;;;;;5033201;28;20428;-83
2021/05/05 00:14:07;;;;;;;3.85;0.90;;;;;;;;;;5033315;28;20045;-83
2021/05/05 00:16:35;;;;;;;5.50;1.02;;;;;;;;;;5033207;28;20041;-83
2021/05/05 00:19:01;;;;;;;6.05;0.90;;;;;;;;;;5033196;28;20112;-83
2021/05/05 00:21:27;;;;;;;4.75;0.90;;;;;;;;;;5033045;28;20038;-84
2021/05/05 00:23:53;;;;;;;6.85;0.95;;;;;;;;;;5033206;28;20395;-84
2021/05/05 00:26:19;;;;;;;3.05;0.90;;;;;;;;;;5032970;28;20064;-83
2021/05/05 00:28:45;;;;;;;4.10;1.30;;;;;;;;;;5034215;28;20037;-83
2021/05/05 00:31:11;;;;;;;6.13;1.30;;;;;;;;;;5032903;28;20042;-83
2021/05/05 00:33:37;;;;;;;4.80;1.25;;;;;;;;;;5016605;28;20058;-84
2021/05/05 00:36:04;;;;;;;8.70;1.75;;;;;;;;;;5032767;28;20050;-84
2021/05/05 00:38:30;;;;;;;8.05;1.40;;;;;;;;;;5033790;28;20049;-84
2021/05/05 00:40:57;;;;;;;9.70;1.75;;;;;;;;;;5032754;28;20115;-84
2021/05/05 00:43:23;;;;;;;5.05;1.50;;;;;;;;;;5016534;28;20132;-84
2021/05/05 00:45:49;;;;;;;6.20;1.30;;;;;;;;;;5032678;28;20381;-84
2021/05/05 00:48:15;;;;;;;6.03;1.23;;;;;;;;;;5032591;28;20500;-84
2021/05/05 00:50:41;;;;;;;7.97;1.52;;;;;;;;;;5032474;28;20469;-84
2021/05/05 00:53:07;;;;;;;6.15;1.50;;;;;;;;;;5032466;28;20038;-84
2021/05/05 00:55:33;;;;;;;5.25;1.63;;;;;;;;;;5033672;28;20061;-84
2021/05/05 00:57:59;;;;;;;8.50;1.30;;;;;;;;;;5033529;28;20069;-83
2021/05/05 01:00:26;;;;;;;3.38;1.27;;;;;;;;;;5033678;28;20552;-84
2021/05/05 01:02:52;;;;;;;8.38;1.23;;;;;;;;;;5033649;28;20125;-84
2021/05/05 01:05:18;;;;;;;8.50;1.42;;;;;;;;;;5032155;28;20381;-83
2021/05/05 01:07:44;;;;;;;6.22;1.25;;;;;;;;;;5033410;28;20065;-84
2021/05/05 01:10:11;;;;;;;4.47;1.33;;;;;;;;;;5015941;28;20038;-83
2021/05/05 01:12:37;;;;;;;2.40;1.00;;;;;;;;;;5033316;28;20481;-84
2021/05/05 01:15:03;;;;;;;7.43;1.30;;;;;;;;;;5032095;28;20088;-84
2021/05/05 01:17:32;;;;;;;4.68;0.98;;;;;;;;;;5015074;28;20042;-84
2021/05/05 01:19:58;;;;;;;6.97;1.30;;;;;;;;;;5015813;28;20033;-84
2021/05/05 01:22:24;;;;;;;3.88;0.98;;;;;;;;;;5033307;28;20041;-84
2021/05/05 01:24:50;;;;;;;7.57;1.83;;;;;;;;;;5033111;28;20370;-84
2021/05/05 01:27:16;;;;;;;5.65;1.27;;;;;;;;;;5015350;28;20037;-84
2021/05/05 01:29:42;;;;;;;5.95;1.38;;;;;;;;;;5031812;28;20492;-84
2021/05/05 01:32:08;;;;;;;7.40;1.30;;;;;;;;;;5032868;28;20041;-84
2021/05/05 01:34:35;;;;;;;6.25;1.40;;;;;;;;;;5031688;28;20041;-83
2021/05/05 01:37:01;;;;;;;8.32;1.40;;;;;;;;;;5015275;28;20239;-83
2021/05/05 01:39:27;;;;;;;8.10;1.15;;;;;;;;;;5015279;28;20489;-83
2021/05/05 01:41:53;;;;;;;9.23;1.30;;;;;;;;;;5015328;28;20122;-83
2021/05/05 01:44:29;;;;;;;7.30;1.30;;;;;;;;;;5015292;28;20049;-83
2021/05/05 01:46:55;;;;;;;11.35;2.05;;;;;;;;;;5031476;28;20496;-83
2021/05/05 01:49:24;;;;;;;8.35;1.55;;;;;;;;;;5032657;28;20045;-83
2021/05/05 01:51:51;;;;;;;9.13;1.65;;;;;;;;;;5031378;28;20041;-83
2021/05/05 01:54:17;;;;;;;7.18;1.58;;;;;;;;;;5032535;28;20041;-83
2021/05/05 01:56:44;;;;;;;5.18;0.90;;;;;;;;;;5031298;28;20044;-83
2021/05/05 01:59:10;;;;;;;7.93;1.60;;;;;;;;;;5031367;28;20051;-83
2021/05/05 02:01:36;;;;;;;10.27;1.50;;;;;;;;;;5031205;28;20095;-83
2021/05/05 02:04:03;;;;;;;5.93;1.55;;;;;;;;;;5031382;28;20049;-83
2021/05/05 02:06:32;;;;;;;12.60;1.77;;;;;;;;;;5031200;28;20047;-83
2021/05/05 02:08:58;;;;;;;7.13;1.67;;;;;;;;;;5031338;28;20073;-83
2021/05/05 02:11:25;;;;;;;4.40;1.40;;;;;;;;;;5015092;28;20033;-83
2021/05/05 02:13:51;;;;;;;6.82;1.50;;;;;;;;;;5031127;28;20037;-83
2021/05/05 02:16:17;;;;;;;10.57;1.70;;;;;;;;;;5030913;28;20076;-83
2021/05/05 02:18:44;;;;;;;12.48;1.52;;;;;;;;;;5014913;28;20092;-83
2021/05/05 02:21:10;;;;;;;13.73;2.03;;;;;;;;;;5032236;28;20041;-83
2021/05/05 02:23:36;;;;;;;11.68;1.75;;;;;;;;;;5031089;28;20099;-83
2021/05/05 02:26:02;;;;;;;6.75;1.90;;;;;;;;;;5031093;28;20033;-83
2021/05/05 02:28:28;;;;;;;7.70;1.73;;;;;;;;;;5031089;28;20056;-83
2021/05/05 02:30:55;;;;;;;8.60;2.13;;;;;;;;;;5014567;28;20504;-83
2021/05/05 02:33:21;;;;;;;10.05;1.40;;;;;;;;;;5030840;28;20045;-83
2021/05/05 02:35:47;;;;;;;7.53;1.50;;;;;;;;;;5032072;28;20068;-83
2021/05/05 02:38:13;;;;;;;7.47;1.70;;;;;;;;;;5031793;28;20057;-83
2021/05/05 02:40:39;;;;;;;6.45;1.40;;;;;;;;;;5014459;28;20120;-83
2021/05/05 02:43:05;;;;;;;7.15;1.50;;;;;;;;;;5030949;28;20496;-83
2021/05/05 02:45:31;;;;;;;7.28;1.83;;;;;;;;;;5031926;28;20030;-83
2021/05/05 02:47:57;;;;;;;7.05;1.90;;;;;;;;;;5032022;28;20040;-83
2021/05/05 02:50:23;;;;;;;5.00;1.42;;;;;;;;;;5030710;28;20037;-83
2021/05/05 02:52:49;;;;;;;7.30;1.45;;;;;;;;;;5030666;28;20068;-83
2021/05/05 02:55:15;;;;;;;3.47;1.10;;;;;;;;;;5031919;28;20044;-83
2021/05/05 02:57:41;;;;;;;6.50;1.30;;;;;;;;;;5014298;28;20072;-82
2021/05/05 03:00:08;;;;;;;5.63;1.30;;;;;;;;;;5030589;28;20064;-83
2021/05/05 03:02:34;;;;;;;7.43;1.73;;;;;;;;;;5031871;28;20041;-83
2021/05/05 03:05:00;;;;;;;4.28;1.13;;;;;;;;;;5032046;28;20464;-84
2021/05/05 03:07:26;;;;;;;8.68;2.65;;;;;;;;;;5031785;28;20048;-84
2021/05/05 03:09:52;;;;;;;7.18;1.58;;;;;;;;;;5030579;28;20046;-84
2021/05/05 03:12:18;;;;;;;11.25;1.60;;;;;;;;;;5030496;28;20068;-83
2021/05/05 03:14:44;;;;;;;8.77;1.75;;;;;;;;;;5030603;28;20548;-83
2021/05/05 03:17:10;;;;;;;7.15;1.75;;;;;;;;;;5030470;28;20041;-83
2021/05/05 03:19:38;;;;;;;8.52;1.23;;;;;;;;;;5030469;28;20489;-82
2021/05/05 03:22:04;;;;;;;9.18;1.55;;;;;;;;;;5030466;28;20064;-83
2021/05/05 03:24:30;;;;;;;9.32;1.80;;;;;;;;;;5014477;28;20465;-83
2021/05/05 03:26:56;;;;;;;9.13;2.15;;;;;;;;;;5013959;28;20041;-83
2021/05/05 03:29:22;;;;;;;12.50;1.58;;;;;;;;;;5030452;28;20033;-82
2021/05/05 03:31:48;;;;;;;14.02;2.45;;;;;;;;;;5031574;28;20389;-83
2021/05/05 03:34:15;;;;;;;7.63;1.63;;;;;;;;;;5031595;28;20108;-83
2021/05/05 03:36:41;;;;;;;8.75;2.60;;;;;;;;;;5014105;28;20039;-83
2021/05/05 03:39:07;;;;;;;9.25;2.20;;;;;;;;;;5030172;28;20060;-83
2021/05/05 03:41:34;;;;;;;10.98;2.50;;;;;;;;;;5017277;28;20175;-83
2021/05/05 03:44:00;;;;;;;14.00;2.35;;;;;;;;;;5017700;28;20116;-83
2021/05/05 03:46:26;;;;;;;9.05;1.95;;;;;;;;;;5033759;28;20473;-83
2021/05/05 03:48:52;;;;;;;15.75;1.90;;;;;;;;;;5033746;28;20045;-83
2021/05/05 03:51:18;;;;;;;11.52;1.98;;;;;;;;;;5017338;28;20033;-83
2021/05/05 03:53:44;;;;;;;13.25;2.10;;;;;;;;;;5033744;28;20038;-83
2021/05/05 03:56:10;;;;;;;11.32;2.22;;;;;;;;;;5033453;28;20063;-83
2021/05/05 03:58:36;;;;;;;9.73;1.80;;;;;;;;;;5033679;28;20041;-84
2021/05/05 04:01:04;;;;;;;12.77;1.88;;;;;;;;;;5001212;28;20484;-84
2021/05/05 04:03:30;;;;;;;12.25;2.83;;;;;;;;;;5017392;28;20132;-83
2021/05/05 04:05:56;;;;;;;10.45;1.98;;;;;;;;;;5034572;28;20042;-83
2021/05/05 04:08:22;;;;;;;10.07;2.25;;;;;;;;;;5033453;28;20041;-83
2021/05/05 04:10:48;;;;;;;11.68;2.15;;;;;;;;;;5033297;28;20091;-83
2021/05/05 04:13:14;;;;;;;12.20;2.40;;;;;;;;;;5033289;28;20037;-83
2021/05/05 04:15:40;;;;;;;13.07;2.00;;;;;;;;;;5034522;28;20049;-83
2021/05/05 04:18:06;;;;;;;12.18;1.90;;;;;;;;;;5033277;28;20037;-83
2021/05/05 04:20:33;;;;;;;9.27;2.00;;;;;;;;;;5016727;28;20045;-83
2021/05/05 04:22:59;;;;;;;8.63;2.03;;;;;;;;;;5016885;28;20045;-87
2021/05/05 04:25:25;;;;;;;6.78;1.90;;;;;;;;;;5016639;28;20384;-83
2021/05/05 04:27:51;;;;;;;6.03;1.38;;;;;;;;;;5032955;28;20041;-84
2021/05/05 04:30:18;;;;;;;8.20;1.85;;;;;;;;;;5034131;28;20033;-84
2021/05/05 04:32:48;;;;;;;7.75;1.30;;;;;;;;;;5032824;28;20038;-82
2021/05/05 04:35:14;;;;;;;7.78;2.20;;;;;;;;;;5032898;28;20037;-83
2021/05/05 04:37:40;;;;;;;9.35;1.67;;;;;;;;;;5032725;28;20067;-84
2021/05/05 04:40:07;;;;;;;6.57;1.35;;;;;;;;;;5032553;28;20057;-83
2021/05/05 04:42:33;;;;;;;11.18;1.55;;;;;;;;;;5032697;28;20047;-83
2021/05/05 04:45:03;;;;;;;7.55;1.90;;;;;;;;;;5034029;28;20037;-83
2021/05/05 04:47:29;;;;;;;8.02;1.55;;;;;;;;;;5034008;28;20053;-83
2021/05/05 04:49:55;;;;;;;9.32;2.20;;;;;;;;;;5032563;28;20037;-83
2021/05/05 04:52:21;;;;;;;12.60;1.88;;;;;;;;;;5031348;28;20041;-83
2021/05/05 04:54:47;;;;;;;8.88;1.45;;;;;;;;;;5016119;28;20037;-82
2021/05/05 04:57:13;;;;;;;7.10;1.90;;;;;;;;;;5032440;28;20034;-83
2021/05/05 04:59:39;;;;;;;14.85;1.83;;;;;;;;;;5032557;28;20124;-83
2021/05/05 05:02:08;;;;;;;10.85;2.17;;;;;;;;;;5032459;28;20128;-85
2021/05/05 05:04:37;;;;;;;13.88;1.88;;;;;;;;;;5033534;28;20045;-84
2021/05/05 05:07:03;;;;;;;8.65;1.77;;;;;;;;;;5032950;28;20068;-83
2021/05/05 05:09:29;;;;;;;11.57;1.50;;;;;;;;;;5032641;28;20489;-84
2021/05/05 05:11:55;;;;;;;11.57;2.05;;;;;;;;;;5032189;28;20124;-84
2021/05/05 05:14:21;;;;;;;10.20;1.70;;;;;;;;;;5032180;28;20044;-83
2021/05/05 05:16:47;;;;;;;9.43;1.60;;;;;;;;;;5032032;28;20064;-83
2021/05/05 05:19:13;;;;;;;11.23;2.50;;;;;;;;;;5032085;28;20037;-83
2021/05/05 05:21:41;;;;;;;12.20;1.92;;;;;;;;;;5033147;28;20045;-80
2021/05/05 05:24:07;;;;;;;14.95;2.10;;;;;;;;;;5032193;28;20099;-83
2021/05/05 05:26:33;;;;;;;15.00;2.38;;;;;;;;;;5015678;28;20090;-83
2021/05/05 05:29:00;;;;;;;10.93;1.83;;;;;;;;;;5033217;28;20436;-83
2021/05/05 05:31:27;;;;;;;14.30;2.40;;;;;;;;;;5031911;28;20450;-83
2021/05/05 05:33:53;;;;;;;13.48;2.15;;;;;;;;;;5031675;28;20507;-83
2021/05/05 05:36:19;;;;;;;12.73;2.22;;;;;;;;;;5032791;28;20116;-84
2021/05/05 05:38:45;;;;;;;12.20;2.35;;;;;;;;;;5031551;28;20073;-83
2021/05/05 05:41:11;;;;;;;12.95;2.42;;;;;;;;;;5015405;28;20128;-83
2021/05/05 05:43:37;;;;;;;9.32;2.03;;;;;;;;;;5031671;28;20052;-83
2021/05/05 05:46:03;;;;;;;16.95;2.65;;;;;;;;;;5031781;28;20037;-83
2021/05/05 05:48:29;;;;;;;14.85;1.85;;;;;;;;;;4999050;28;20053;-83
2021/05/05 05:50:56;;;;;;;10.23;1.98;;;;;;;;;;5032626;28;20091;-83
2021/05/05 05:53:22;;;;;;;7.60;1.67;;;;;;;;;;5031327;28;20037;-84
2021/05/05 05:55:50;;;;;;;6.38;1.30;;;;;;;;;;5031422;28;20037;-86
2021/05/05 05:58:16;;;;;;;10.98;1.80;;;;;;;;;;5032553;28;20037;-85
2021/05/05 06:00:42;;;;;;;8.13;1.83;;;;;;;;;;5031499;28;20098;-85
2021/05/05 06:03:09;;;;;;;13.40;2.03;;;;;;;;;;5030980;28;20404;-85
2021/05/05 06:05:35;;;;;;;9.23;2.03;;;;;;;;;;5015119;28;20091;-85
2021/05/05 06:08:04;;;;;;;11.55;1.88;;;;;;;;;;5031293;28;20065;-84
2021/05/05 06:10:30;;;;;;;10.18;2.47;;;;;;;;;;5032483;28;20041;-84
2021/05/05 06:12:56;;;;;;;9.27;1.80;;;;;;;;;;5014733;28;20037;-84
2021/05/05 06:15:22;;;;;;;7.80;2.85;;;;;;;;;;5032326;28;20543;-89
2021/05/05 06:17:49;;;;;;;4.72;1.75;;;;;;;;;;4998322;28;20053;-85
2021/05/05 06:20:15;;;;;;;12.93;1.92;;;;;;;;;;5031025;28;20042;-85
2021/05/05 06:22:42;;;;;;;13.57;1.60;;;;;;;;;;5031084;28;20411;-86
2021/05/05 06:25:09;;;;;;;11.23;1.70;;;;;;;;;;5014644;28;20033;-87
2021/05/05 06:27:35;;;;;;;10.40;2.08;;;;;;;;;;5014699;28;20045;-88
2021/05/05 06:30:01;;;;;;;10.00;1.67;;;;;;;;;;5016985;28;20033;-83
2021/05/05 06:32:27;;;;;;;10.75;1.70;;;;;;;;;;5032137;28;20080;-82
2021/05/05 06:34:53;;;;;;;11.43;1.98;;;;;;;;;;5014550;28;20061;-83
2021/05/05 06:37:20;;;;;;;9.52;1.70;;;;;;;;;;5030778;28;20041;-82
2021/05/05 06:39:46;;;;;;;15.48;1.92;;;;;;;;;;5030682;28;20064;-83
2021/05/05 06:42:12;;;;;;;17.52;2.20;;;;;;;;;;5030846;28;20037;-82
2021/05/05 06:44:38;;;;;;;11.73;2.15;;;;;;;;;;5032070;28;20033;-83
2021/05/05 06:47:04;;;;;;;10.50;1.63;;;;;;;;;;5031930;28;20040;-83
2021/05/05 06:49:33;;;;;;;7.65;1.33;;;;;;;;;;5014260;28;20067;-83
2021/05/05 06:51:59;;;;;;;8.02;1.65;;;;;;;;;;5030486;28;20378;-83
2021/05/05 06:54:25;;;;;;;8.93;1.45;;;;;;;;;;5031948;28;20034;-83
2021/05/05 06:56:51;;;;;;;10.35;1.55;;;;;;;;;;5014160;28;20543;-82
2021/05/05 06:59:17;;;;;;;14.80;1.98;;;;;;;;;;5031770;28;20388;-83
2021/05/05 07:01:43;;;;;;;9.05;1.75;;;;;;;;;;5031655;28;20569;-83
2021/05/05 07:04:09;;;;;;;8.93;1.60;;;;;;;;;;5031765;28;20040;-84
2021/05/05 07:06:37;;;;;;;14.77;1.90;;;;;;;;;;5030730;28;20041;-85
2021/05/05 07:09:06;;;;;;;7.88;1.48;;;;;;;;;;5030729;28;20397;-84
2021/05/05 07:11:35;;;;;;;9.15;1.63;;;;;;;;;;5030655;28;20124;-86
2021/05/05 07:14:01;;;;;;;12.88;1.67;;;;;;;;;;5043903;28;20033;-87
2021/05/05 07:16:27;;;;;;;11.40;1.80;;;;;;;;;;5051943;28;20685;-84
2021/05/05 07:18:53;;;;;;;10.50;1.58;;;;;;;;;;5054184;28;20051;-83
2021/05/05 07:21:19;;;;;;;6.60;1.88;;;;;;;;;;5053442;28;20037;-80
2021/05/05 07:23:46;;;;;;;11.13;1.95;;;;;;;;;;5054134;28;20110;-82
2021/05/05 07:26:12;;;;;;;17.63;2.63;;;;;;;;;;5055099;28;20120;-82
2021/05/05 07:28:39;;;;;;;9.48;1.58;;;;;;;;;;5037475;28;20029;-80
2021/05/05 07:31:05;;;;;;;10.45;1.95;;;;;;;;;;5054303;28;20491;-87
2021/05/05 07:33:32;;;;;;;9.45;1.90;;;;;;;;;;5037587;28;20041;-84
2021/05/05 07:35:58;;;;;;;8.90;1.83;;;;;;;;;;5053626;28;20071;-84
2021/05/05 07:46:56;;;;;;;7.75;1.85;;;;;;;;;;5053783;28;20059;-83
2021/05/05 07:49:03;;;;;;;10.75;1.98;;;;;;;;;;5048217;28;20057;-83
2021/05/05 07:51:29;;;;;;;11.82;2.13;;;;;;;;;;5053445;28;20041;-82
2021/05/05 07:53:55;;;;;;;13.35;2.30;;;;;;;;;;5054574;28;20099;-82
2021/05/05 07:56:21;;;;;;;11.07;2.10;;;;;;;;;;5053493;28;20068;-83
2021/05/05 07:58:47;;;;;;;8.70;1.98;;;;;;;;;;5053620;28;20056;-83
2021/05/05 08:01:16;;;;;;;14.52;2.75;;;;;;;;;;5053507;28;20148;-82
2021/05/05 08:03:42;;;;;;;9.95;1.75;;;;;;;;;;5054665;28;20139;-82
2021/05/05 08:06:08;;;;;;;10.32;1.88;;;;;;;;;;5053132;28;20037;-82
2021/05/05 08:08:34;;;;;;;10.95;2.10;;;;;;;;;;5053392;28;20048;-83
2021/05/05 08:11:01;;;;;;;9.50;2.08;;;;;;;;;;5053290;28;20033;-82
2021/05/05 08:13:27;;;;;;;7.55;1.70;;;;;;;;;;5053173;28;20048;-82
2021/05/05 08:15:53;;;;;;;9.35;1.95;;;;;;;;;;5036675;28;20040;-83
2021/05/05 08:18:20;;;;;;;10.45;1.88;;;;;;;;;;5053404;28;20048;-82
2021/05/05 08:20:47;;;;;;;8.45;1.85;;;;;;;;;;5052983;28;20043;-84
2021/05/05 08:23:14;;;;;;;10.73;1.90;;;;;;;;;;5036785;28;20056;-84
2021/05/05 08:25:42;;;;;;;9.63;1.90;;;;;;;;;;5052875;28;20476;-85
2021/05/05 08:28:08;;;;;;;9.88;1.63;;;;;;;;;;5053086;28;20048;-85
2021/05/05 08:30:34;;;;;;;4.75;1.20;;;;;;;;;;5054339;28;20280;-84
2021/05/05 08:33:01;;;;;;;8.07;1.20;;;;;;;;;;5053103;28;20033;-86
2021/05/05 08:35:27;;;;;;;7.22;1.30;;;;;;;;;;5052494;28;20115;-86
2021/05/05 08:37:53;;;;;;;6.63;1.33;;;;;;;;;;5052586;28;20072;-85
2021/05/05 08:40:20;;;;;;;6.40;1.15;;;;;;;;;;5053226;28;20147;-84
2021/05/05 08:42:46;;;;;;;2.85;0.90;;;;;;;;;;5036236;28;20064;-84
2021/05/05 08:45:15;;;;;;;7.93;1.20;;;;;;;;;;5052637;28;20037;-86
2021/05/05 08:47:45;;;;;;;6.25;1.13;;;;;;;;;;5053682;28;20511;-87
2021/05/05 08:50:11;;;;;;;4.20;1.10;;;;;;;;;;5052465;28;20036;-86
2021/05/05 08:52:41;;;;;;;3.55;0.68;;;;;;;;;;5035946;28;20037;-86
2021/05/05 08:55:07;;;;;;;1.10;0.60;;;;;;;;;;5036092;28;20503;-85
2021/05/05 08:57:33;;;;;;;4.55;0.88;;;;;;;;;;5052190;28;20041;-87
2021/05/05 08:59:59;;;;;;;3.22;0.90;;;;;;;;;;5035207;28;20508;-84
2021/05/05 09:02:27;;;;;;;3.95;0.80;;;;;;;;;;5035192;28;20041;-82
2021/05/05 09:05:07;;;;;;;2.65;0.80;;;;;;;;;;5052146;28;20056;-84
2021/05/05 09:07:34;;;;;;;3.78;0.90;;;;;;;;;;5052096;28;20119;-84
2021/05/05 09:10:20;;;;;;;4.90;1.10;;;;;;;;;;5051281;28;20044;-84
2021/05/05 09:12:47;;;;;;;5.63;0.90;;;;;;;;;;5051320;28;20040;-84
2021/05/05 09:15:22;;;;;;;3.97;1.17;;;;;;;;;;5051288;28;20083;-83
2021/05/05 09:17:55;;;;;;;3.03;1.00;;;;;;;;;;5052945;28;20476;-84
2021/05/05 09:20:22;;;;;;;3.75;0.90;;;;;;;;;;5051706;28;20033;-86
2021/05/05 09:22:52;;;;;;;3.55;0.90;;;;;;;;;;5051526;28;20041;-83
2021/05/05 09:25:20;;;;;;;3.85;0.90;;;;;;;;;;5051366;28;20379;-83
2021/05/05 09:28:08;;;;;;;6.05;1.10;;;;;;;;;;5051506;28;20037;-85
2021/05/05 09:30:34;;;;;;;2.20;0.80;;;;;;;;;;5034732;28;20041;-85
2021/05/05 09:33:00;;;;;;;2.83;1.15;;;;;;;;;;5034979;28;20045;-85
2021/05/05 09:35:30;;;;;;;3.30;0.90;;;;;;;;;;5030559;28;20488;-85
2021/05/05 09:38:01;;;;;;;6.20;1.38;;;;;;;;;;5043614;28;20034;-87
2021/05/05 09:40:27;;;;;;;3.55;1.02;;;;;;;;;;5044404;28;20095;-85
2021/05/05 09:42:53;;;;;;;4.57;1.23;;;;;;;;;;5039982;28;20041;-84
2021/05/05 09:45:19;;;;;;;6.32;1.38;;;;;;;;;;5047976;28;20029;-84
2021/05/05 09:47:45;;;;;;;8.05;2.08;;;;;;;;;;5050854;28;20555;-85
2021/05/05 09:50:27;;;;;;;7.50;2.15;;;;;;;;;;5052578;28;20254;-84
2021/05/05 09:53:12;;;;;;;3.03;0.90;;;;;;;;;;5052502;28;20045;-85
2021/05/05 09:55:38;;;;;;;4.47;1.00;;;;;;;;;;5052511;28;20039;-86
2021/05/05 09:58:23;;;;;;;7.75;1.17;;;;;;;;;;5063383;28;20109;-85
2021/05/05 10:01:12;;;;;;;6.93;1.27;;;;;;;;;;5042552;28;20029;-86
2021/05/05 10:04:07;;;;;;;7.70;1.33;;;;;;;;;;5042034;28;20049;-88
2021/05/05 10:06:37;;;;;;;5.85;1.45;;;;;;;;;;5036263;28;20049;-86
2021/05/05 10:09:10;;;;;;;10.30;1.40;;;;;;;;;;5048630;28;20509;-88
2021/05/05 10:11:39;;;;;;;9.00;1.60;;;;;;;;;;5037914;28;20025;-88
2021/05/05 10:14:06;;;;;;;6.55;1.20;;;;;;;;;;5066740;28;20123;-87
2021/05/05 10:16:35;;;;;;;5.72;1.10;;;;;;;;;;5066738;28;20043;-88
2021/05/05 10:19:01;;;;;;;6.65;1.48;;;;;;;;;;5063161;28;20053;-88
2021/05/05 10:21:27;;;;;;;6.85;1.20;;;;;;;;;;5047042;28;20042;-88
2021/05/05 10:23:54;;;;;;;9.35;1.55;;;;;;;;;;5041577;28;20045;-88
2021/05/05 10:26:20;;;;;;;14.48;2.25;;;;;;;;;;5035328;28;20089;-96
2021/05/05 10:28:53;;;;;;;7.65;1.80;;;;;;;;;;5036390;28;20045;-85
2021/05/05 10:31:22;;;;;;;4.75;1.30;;;;;;;;;;5031135;28;20129;-87
2021/05/05 10:33:49;;;;;;;8.20;1.90;;;;;;;;;;5048617;28;20041;-85
2021/05/05 10:36:35;;;;;;;7.55;1.60;;;;;;;;;;5038430;28;20049;-85
2021/05/05 10:39:02;;;;;;;10.82;1.98;;;;;;;;;;5047131;28;20045;-86
2021/05/05 10:41:28;;;;;;;9.43;2.00;;;;;;;;;;5047406;28;20046;-85
2021/05/05 10:43:56;;;;;;;5.63;1.73;;;;;;;;;;5047371;28;20038;-85
2021/05/05 10:46:23;;;;;;;8.82;1.70;;;;;;;;;;5047408;28;20044;-85
2021/05/05 10:49:16;;;;;;;17.25;2.10;;;;;;;;;;5048100;28;20033;-86
2021/05/05 10:51:45;;;;;;;7.82;1.33;;;;;;;;;;5034760;28;20049;-86
2021/05/05 10:54:12;;;;;;;5.60;1.50;;;;;;;;;;5036156;28;20397;-85
2021/05/05 10:56:38;;;;;;;8.82;1.70;;;;;;;;;;5051373;28;20048;-85
2021/05/05 10:59:08;;;;;;;8.43;1.58;;;;;;;;;;5051153;28;20037;-85
2021/05/05 11:01:41;;;;;;;10.90;1.95;;;;;;;;;;5050518;28;20033;-85
2021/05/05 11:04:07;;;;;;;7.53;1.80;;;;;;;;;;5051137;28;20460;-85
2021/05/05 11:06:35;;;;;;;7.13;2.08;;;;;;;;;;5050990;28;20037;-84
2021/05/05 11:09:07;;;;;;;7.05;1.60;;;;;;;;;;5051180;28;20045;-84
2021/05/05 11:11:36;;;;;;;13.57;1.85;;;;;;;;;;5051093;28;20052;-85
2021/05/05 11:14:02;;;;;;;6.85;1.63;;;;;;;;;;5050842;28;20116;-85
2021/05/05 11:16:48;;;;;;;8.38;2.42;;;;;;;;;;5050894;28;20073;-85
2021/05/05 11:19:33;;;;;;;6.15;1.65;;;;;;;;;;5035178;28;20523;-85
2021/05/05 11:21:59;;;;;;;4.32;1.20;;;;;;;;;;5035434;28;20037;-85
2021/05/05 11:24:44;;;;;;;8.40;1.40;;;;;;;;;;5050736;28;20095;-85
2021/05/05 11:27:10;;;;;;;7.72;1.65;;;;;;;;;;5050831;28;20112;-85
2021/05/05 11:29:39;;;;;;;10.55;1.90;;;;;;;;;;5050433;28;20119;-85
2021/05/05 11:32:06;;;;;;;6.70;1.58;;;;;;;;;;5050512;28;20121;-85
2021/05/05 11:34:33;;;;;;;11.82;1.58;;;;;;;;;;5050455;28;20042;-85
2021/05/05 11:36:59;;;;;;;10.98;1.75;;;;;;;;;;5050491;28;20382;-85
2021/05/05 11:39:38;;;;;;;8.63;1.92;;;;;;;;;;5034935;28;20049;-85
2021/05/05 11:42:04;;;;;;;11.02;1.98;;;;;;;;;;5050274;28;20107;-85
2021/05/05 11:44:43;;;;;;;16.33;2.30;;;;;;;;;;5034970;28;20044;-85
2021/05/05 11:47:10;;;;;;;8.40;2.08;;;;;;;;;;5050124;28;20033;-85
2021/05/05 11:49:46;;;;;;;13.63;1.98;;;;;;;;;;5034900;28;20049;-85
2021/05/05 11:52:23;;;;;;;9.75;2.00;;;;;;;;;;5050257;28;20049;-85
2021/05/05 11:54:49;;;;;;;8.73;2.20;;;;;;;;;;5050134;28;20098;-85
2021/05/05 11:57:16;;;;;;;7.75;1.67;;;;;;;;;;5050336;28;20393;-85
2021/05/05 11:59:42;;;;;;;11.90;1.83;;;;;;;;;;5050003;28;20037;-85
2021/05/05 12:02:08;;;;;;;11.57;2.45;;;;;;;;;;5049494;28;20044;-85
2021/05/05 12:04:38;;;;;;;10.13;2.42;;;;;;;;;;5034681;28;20116;-85
2021/05/05 12:07:06;;;;;;;9.70;2.92;;;;;;;;;;5049850;28;20040;-85
2021/05/05 12:09:33;;;;;;;14.45;2.72;;;;;;;;;;5049904;28;20120;-85
2021/05/05 12:12:12;;;;;;;13.75;2.30;;;;;;;;;;5049664;28;20481;-85
2021/05/05 12:14:38;;;;;;;13.43;2.45;;;;;;;;;;5049798;28;20083;-85
2021/05/05 12:17:15;;;;;;;11.18;2.13;;;;;;;;;;5049703;28;20069;-85
2021/05/05 12:19:51;;;;;;;12.60;2.33;;;;;;;;;;5048832;28;20175;-85
2021/05/05 12:22:17;;;;;;;13.55;2.40;;;;;;;;;;5034339;28;20069;-86
2021/05/05 12:25:03;;;;;;;13.18;2.35;;;;;;;;;;5049756;28;20049;-85
2021/05/05 12:27:29;;;;;;;12.25;2.50;;;;;;;;;;5034301;28;20037;-86
2021/05/05 12:29:59;;;;;;;9.15;2.15;;;;;;;;;;5049513;28;20041;-85
2021/05/05 12:32:40;;;;;;;9.63;1.60;;;;;;;;;;5049532;28;20194;-85
2021/05/05 12:35:06;;;;;;;11.35;2.05;;;;;;;;;;5034131;28;20045;-84
2021/05/05 12:37:32;;;;;;;12.43;1.90;;;;;;;;;;5049451;28;20076;-85
2021/05/05 12:39:58;;;;;;;12.00;2.08;;;;;;;;;;5049305;28;20050;-85
2021/05/05 12:42:25;;;;;;;9.82;1.80;;;;;;;;;;5049350;28;20091;-85
2021/05/05 12:44:51;;;;;;;6.00;1.95;;;;;;;;;;5049231;28;20455;-85
2021/05/05 12:47:17;;;;;;;7.78;1.50;;;;;;;;;;5049395;28;20038;-86
2021/05/05 12:49:43;;;;;;;11.73;1.85;;;;;;;;;;5049535;28;20041;-86
2021/05/05 12:52:31;;;;;;;11.45;2.45;;;;;;;;;;5048971;28;20124;-85
2021/05/05 12:54:58;;;;;;;13.70;2.63;;;;;;;;;;5048679;28;20085;-85
2021/05/05 12:57:24;;;;;;;10.90;2.30;;;;;;;;;;5048807;28;20064;-85
2021/05/05 12:59:51;;;;;;;7.68;2.00;;;;;;;;;;5033562;28;20072;-84
2021/05/05 13:02:25;;;;;;;12.02;2.55;;;;;;;;;;5049029;28;20247;-85
2021/05/05 13:04:52;;;;;;;11.07;2.50;;;;;;;;;;5033745;28;20112;-85
2021/05/05 13:07:27;;;;;;;12.18;2.53;;;;;;;;;;5048855;28;20037;-85
2021/05/05 13:10:03;;;;;;;11.82;2.40;;;;;;;;;;5033599;28;20041;-84
2021/05/05 13:12:47;;;;;;;13.95;2.50;;;;;;;;;;5047558;28;20041;-85
2021/05/05 13:15:24;;;;;;;20.63;2.53;;;;;;;;;;5046216;28;20064;-85
2021/05/05 13:18:11;;;;;;;9.10;2.25;;;;;;;;;;5048730;28;20034;-85
2021/05/05 13:25:45;;;;;;;12.77;2.70;;;;;;;;;;5047115;28;20448;-85
2021/05/05 13:31:49;;;;;;;14.48;2.10;;;;;;;;;;5046060;28;20041;-85
2021/05/05 13:34:16;;;;;;;8.70;2.00;;;;;;;;;;5033239;28;20076;-85
2021/05/05 13:36:46;;;;;;;13.40;2.40;;;;;;;;;;5048074;28;20033;-85
2021/05/05 13:39:12;;;;;;;13.50;3.38;;;;;;;;;;5048056;28;20045;-85
2021/05/05 13:41:38;;;;;;;8.50;2.03;;;;;;;;;;5048002;28;20056;-85
2021/05/05 13:44:09;;;;;;;7.13;1.77;;;;;;;;;;5048265;28;20389;-85
2021/05/05 13:46:56;;;;;;;8.40;1.58;;;;;;;;;;5047451;28;20041;-85
2021/05/05 13:51:47;;;;;;;11.75;2.28;;;;;;;;;;5048241;28;20042;-85
2021/05/05 13:54:13;;;;;;;13.07;2.35;;;;;;;;;;5047756;28;20124;-84
2021/05/05 13:56:39;;;;;;;11.85;2.30;;;;;;;;;;5047757;28;20041;-83
2021/05/05 13:59:05;;;;;;;8.95;2.83;;;;;;;;;;5047852;28;20048;-84
2021/05/05 14:01:31;;;;;;;18.85;2.22;;;;;;;;;;5047868;28;20209;-84
2021/05/05 14:03:57;;;;;;;13.55;2.35;;;;;;;;;;5047805;28;20453;-85
2021/05/05 14:06:24;;;;;;;12.05;2.65;;;;;;;;;;5047671;28;20038;-85
2021/05/05 14:08:51;;;;;;;18.77;2.75;;;;;;;;;;5031143;28;20412;-85
2021/05/05 14:11:17;;;;;;;12.75;2.42;;;;;;;;;;5047834;28;20037;-84
2021/05/05 14:13:43;;;;;;;12.52;2.35;;;;;;;;;;5047618;28;20056;-85
2021/05/05 14:16:11;;;;;;;14.15;2.75;;;;;;;;;;5047428;28;20049;-84
2021/05/05 14:18:37;;;;;;;14.88;2.58;;;;;;;;;;5032271;28;20042;-84
2021/05/05 14:21:07;;;;;;;15.18;2.65;;;;;;;;;;5047502;28;20543;-84
2021/05/05 14:23:33;;;;;;;15.68;3.22;;;;;;;;;;5046912;28;20263;-85
2021/05/05 14:25:59;;;;;;;11.07;2.28;;;;;;;;;;5047444;28;20047;-84
2021/05/05 14:28:25;;;;;;;12.05;2.25;;;;;;;;;;5047345;28;20038;-84
2021/05/05 14:30:51;;;;;;;14.60;3.03;;;;;;;;;;5047639;28;20370;-84
2021/05/05 14:33:18;;;;;;;10.65;2.72;;;;;;;;;;5047596;28;20068;-84
2021/05/05 14:35:44;;;;;;;13.43;2.80;;;;;;;;;;5047312;28;20116;-85
2021/05/05 14:38:17;;;;;;;12.32;2.30;;;;;;;;;;5047114;28;20406;-84
2021/05/05 14:40:44;;;;;;;11.77;2.40;;;;;;;;;;5046505;28;20041;-84
2021/05/05 14:46:00;;;;;;;14.88;2.53;;;;;;;;;;5045076;28;20064;-84
2021/05/05 14:48:32;;;;;;;17.30;2.58;;;;;;;;;;5046606;28;20095;-84
2021/05/05 14:50:58;;;;;;;13.82;2.40;;;;;;;;;;5046826;28;20038;-84
2021/05/05 14:53:24;;;;;;;10.68;2.78;;;;;;;;;;5047195;28;20452;-84
2021/05/05 14:55:51;;;;;;;8.23;2.03;;;;;;;;;;5047553;28;20113;-84
2021/05/05 15:00:46;;;;;;;13.35;1.40;;;;;;;;;;5046768;28;20060;-84
2021/05/05 15:03:12;;;;;;;8.55;1.70;;;;;;;;;;5047228;28;20053;-85
2021/05/05 15:05:38;;;;;;;7.03;1.60;;;;;;;;;;5047207;28;20124;-85
2021/05/05 15:08:09;;;;;;;11.95;2.33;;;;;;;;;;5047044;28;20056;-85